createdAt,value
2017-12-16T00:01:56.293Z,4.72
2017-12-16T00:04:24.318Z,3.97
2017-12-16T00:06:52.305Z,5.50
2017-12-16T00:09:20.333Z,5.10
2017-12-16T00:11:48.338Z,5.00
2017-12-16T00:14:16.349Z,3.70
2017-12-16T00:16:44.376Z,4.18
2017-12-16T00:19:12.392Z,4.55
2017-12-16T00:21:41.174Z,4.22
2017-12-16T00:24:09.204Z,4.35
2017-12-16T00:26:37.188Z,4.80
2017-12-16T00:29:05.175Z,4.18
2017-12-16T00:31:34.086Z,4.05
2017-12-16T00:34:02.072Z,4.25
2017-12-16T00:36:30.108Z,4.55
2017-12-16T00:38:58.908Z,4.10
2017-12-16T00:41:27.660Z,4.35
2017-12-16T00:43:55.644Z,3.67
2017-12-16T00:46:23.674Z,3.85
2017-12-16T00:48:52.427Z,4.10
2017-12-16T00:51:20.412Z,4.20
2017-12-16T00:53:48.428Z,4.50
2017-12-16T00:56:16.421Z,5.53
2017-12-16T00:58:44.405Z,5.30
2017-12-16T01:01:13.180Z,4.47
2017-12-16T01:03:41.172Z,5.10
2017-12-16T01:06:09.171Z,3.80
2017-12-16T01:08:37.945Z,4.50
2017-12-16T01:11:05.948Z,4.05
2017-12-16T01:13:34.707Z,3.90
2017-12-16T01:16:02.924Z,4.47
2017-12-16T01:18:31.696Z,4.28
2017-12-16T01:20:59.683Z,4.20
2017-12-16T01:23:27.711Z,3.90
2017-12-16T01:25:56.459Z,4.55
2017-12-16T01:28:24.444Z,4.53
2017-12-16T01:30:52.464Z,4.82
2017-12-16T01:33:32.447Z,4.85
2017-12-16T01:36:13.219Z,4.80
2017-12-16T01:38:41.996Z,4.53
2017-12-16T01:41:10.076Z,3.58
2017-12-16T01:43:38.167Z,4.15
2017-12-16T01:46:06.221Z,4.55
2017-12-16T01:48:34.273Z,4.80
2017-12-16T01:51:03.089Z,4.53
2017-12-16T01:53:31.133Z,4.97
2017-12-16T01:55:59.197Z,3.90
2017-12-16T01:58:27.229Z,4.32
2017-12-16T02:00:56.052Z,4.55
2017-12-16T02:03:24.085Z,4.15
2017-12-16T02:05:53.672Z,4.50
2017-12-16T02:08:21.713Z,4.10
2017-12-16T02:10:50.529Z,4.78
2017-12-16T02:13:18.597Z,4.95
2017-12-16T02:15:47.424Z,4.90
2017-12-16T02:18:15.637Z,4.72
2017-12-16T02:20:43.703Z,5.20
2017-12-16T02:23:11.776Z,4.75
2017-12-16T02:25:39.861Z,5.15
2017-12-16T02:28:07.902Z,5.10
2017-12-16T02:30:35.961Z,4.22
2017-12-16T02:33:03.997Z,4.82
2017-12-16T02:35:32.929Z,5.57
2017-12-16T02:38:00.978Z,4.85
2017-12-16T02:40:29.765Z,4.65
2017-12-16T02:42:57.853Z,5.47
2017-12-16T02:45:25.896Z,4.37
2017-12-16T02:47:53.958Z,5.20
2017-12-16T02:50:21.997Z,5.10
2017-12-16T02:52:50.073Z,4.90
2017-12-16T02:55:18.875Z,3.40
2017-12-16T02:57:46.919Z,4.95
2017-12-16T03:00:14.978Z,6.12
2017-12-16T03:02:43.802Z,5.12
2017-12-16T03:05:11.873Z,4.97
2017-12-16T03:07:40.678Z,6.72
2017-12-16T03:10:08.837Z,5.12
2017-12-16T03:12:36.865Z,4.15
2017-12-16T03:15:04.912Z,4.82
2017-12-16T03:17:33.738Z,5.20
2017-12-16T03:20:02.130Z,5.78
2017-12-16T03:22:30.200Z,5.32
2017-12-16T03:24:58.240Z,5.70
2017-12-16T03:27:26.277Z,5.75
2017-12-16T03:29:54.337Z,5.00
2017-12-16T03:32:23.148Z,5.28
2017-12-16T03:34:51.956Z,5.35
2017-12-16T03:37:19.993Z,4.45
2017-12-16T03:39:48.054Z,4.20
2017-12-16T03:42:16.101Z,5.40
2017-12-16T03:44:44.914Z,5.47
2017-12-16T03:47:12.965Z,4.97
2017-12-16T03:49:41.016Z,5.57
2017-12-16T03:52:09.065Z,5.10
2017-12-16T03:54:37.120Z,5.18
2017-12-16T03:57:05.169Z,7.62
2017-12-16T03:59:33.245Z,4.97
2017-12-16T04:02:01.307Z,5.25
2017-12-16T04:04:29.357Z,5.45
2017-12-16T04:06:57.397Z,4.87
2017-12-16T04:09:25.501Z,4.12
2017-12-16T04:11:53.532Z,5.05
2017-12-16T04:14:21.569Z,5.93
2017-12-16T04:16:49.624Z,6.32
2017-12-16T04:19:17.653Z,4.55
2017-12-16T04:21:47.212Z,4.20
2017-12-16T04:24:15.253Z,5.18
2017-12-16T04:26:43.357Z,5.70
2017-12-16T04:29:12.179Z,4.50
2017-12-16T04:31:40.213Z,5.37
2017-12-16T04:34:08.307Z,4.68
2017-12-16T04:36:36.344Z,5.45
2017-12-16T04:39:04.410Z,5.07
2017-12-16T04:41:32.438Z,4.32
2017-12-16T04:44:00.504Z,4.40
2017-12-16T04:46:28.541Z,4.75
2017-12-16T04:48:57.354Z,5.65
2017-12-16T04:51:26.164Z,5.00
2017-12-16T04:53:54.207Z,5.15
2017-12-16T04:56:22.253Z,4.55
2017-12-16T04:58:50.297Z,4.90
2017-12-16T05:01:19.157Z,4.80
2017-12-16T05:03:47.224Z,6.40
2017-12-16T05:06:15.296Z,4.62
2017-12-16T05:08:43.365Z,5.47
2017-12-16T05:11:11.412Z,5.62
2017-12-16T05:13:39.477Z,6.00
2017-12-16T05:16:07.518Z,5.40
2017-12-16T05:18:35.613Z,4.18
2017-12-16T05:21:03.689Z,4.85
2017-12-16T05:23:31.736Z,6.10
2017-12-16T05:25:59.792Z,5.32
2017-12-16T05:28:27.833Z,5.35
2017-12-16T05:30:56.652Z,4.70
2017-12-16T05:33:24.683Z,5.45
2017-12-16T05:35:52.753Z,5.28
2017-12-16T05:38:20.784Z,5.47
2017-12-16T05:40:49.585Z,5.57
2017-12-16T05:43:18.413Z,5.45
2017-12-16T05:45:46.452Z,5.75
2017-12-16T05:48:15.280Z,4.97
2017-12-16T05:50:43.340Z,5.95
2017-12-16T05:53:12.172Z,5.78
2017-12-16T05:55:40.217Z,5.30
2017-12-16T05:58:08.265Z,6.10
2017-12-16T06:00:36.322Z,5.65
2017-12-16T06:03:04.377Z,5.80
2017-12-16T06:05:33.189Z,5.00
2017-12-16T06:08:02.221Z,6.40
2017-12-16T06:10:30.257Z,5.20
2017-12-16T06:12:58.289Z,4.93
2017-12-16T06:15:26.348Z,7.15
2017-12-16T06:17:55.149Z,7.12
2017-12-16T06:20:23.210Z,6.03
2017-12-16T06:22:51.252Z,7.25
2017-12-16T06:25:19.333Z,7.32
2017-12-16T06:27:47.373Z,6.90
2017-12-16T06:30:16.172Z,8.15
2017-12-16T06:32:45.009Z,6.32
2017-12-16T06:35:13.082Z,7.53
2017-12-16T06:37:41.916Z,7.45
2017-12-16T06:40:09.993Z,6.47
2017-12-16T06:42:38.049Z,7.80
2017-12-16T06:45:06.092Z,8.43
2017-12-16T06:47:34.188Z,6.80
2017-12-16T06:50:02.212Z,7.30
2017-12-16T06:52:30.261Z,8.32
2017-12-16T06:54:58.312Z,7.12
2017-12-16T06:57:26.393Z,6.93
2017-12-16T06:59:54.433Z,6.55
2017-12-16T07:02:23.233Z,7.45
2017-12-16T07:04:52.273Z,7.55
2017-12-16T07:07:20.472Z,7.07
2017-12-16T07:09:48.553Z,7.00
2017-12-16T07:12:16.605Z,9.10
2017-12-16T07:14:44.669Z,8.10
2017-12-16T07:17:13.488Z,7.78
2017-12-16T07:19:41.592Z,7.80
2017-12-16T07:22:10.384Z,8.20
2017-12-16T07:24:38.448Z,7.22
2017-12-16T07:27:07.244Z,8.02
2017-12-16T07:29:36.076Z,8.60
2017-12-16T07:32:04.105Z,9.07
2017-12-16T07:34:32.169Z,8.45
2017-12-16T07:37:00.206Z,8.95
2017-12-16T07:39:29.049Z,9.30
2017-12-16T07:41:57.085Z,9.55
2017-12-16T07:44:25.886Z,7.90
2017-12-16T07:46:53.959Z,8.00
2017-12-16T07:49:22.758Z,9.25
2017-12-16T07:51:50.812Z,9.35
2017-12-16T07:54:18.850Z,8.48
2017-12-16T07:56:46.912Z,9.93
2017-12-16T07:59:15.713Z,7.28
2017-12-16T08:01:43.781Z,9.32
2017-12-16T08:04:11.852Z,9.30
2017-12-16T08:06:39.925Z,10.50
2017-12-16T08:09:07.961Z,9.60
2017-12-16T08:11:36.785Z,7.80
2017-12-16T08:14:04.824Z,7.40
2017-12-16T08:16:32.884Z,8.10
2017-12-16T08:19:00.928Z,9.38
2017-12-16T08:21:29.000Z,10.48
2017-12-16T08:23:57.803Z,9.13
2017-12-16T08:26:26.600Z,9.77
2017-12-16T08:28:55.425Z,9.23
2017-12-16T08:31:23.457Z,9.75
2017-12-16T08:33:51.519Z,9.90
2017-12-16T08:36:19.562Z,10.18
2017-12-16T08:38:48.392Z,11.32
2017-12-16T08:41:16.426Z,9.82
2017-12-16T08:43:44.496Z,9.90
2017-12-16T08:46:12.544Z,9.73
2017-12-16T08:48:40.585Z,10.52
2017-12-16T08:51:09.402Z,9.32
2017-12-16T08:53:37.445Z,10.45
2017-12-16T08:56:05.500Z,11.27
2017-12-16T08:58:33.551Z,11.73
2017-12-16T09:01:01.609Z,10.30
2017-12-16T09:03:29.653Z,11.30
2017-12-16T09:05:57.725Z,11.05
2017-12-16T09:08:25.769Z,10.15
2017-12-16T09:10:53.829Z,10.32
2017-12-16T09:13:21.865Z,11.77
2017-12-16T09:15:49.921Z,9.40
2017-12-16T09:18:18.725Z,10.13
2017-12-16T09:20:47.577Z,10.13
2017-12-16T09:23:15.629Z,11.35
2017-12-16T09:25:43.687Z,11.40
2017-12-16T09:28:11.749Z,12.02
2017-12-16T09:30:39.808Z,12.30
2017-12-16T09:33:07.868Z,11.80
2017-12-16T09:35:35.912Z,10.70
2017-12-16T09:38:03.969Z,9.32
2017-12-16T09:40:32.016Z,10.77
2017-12-16T09:43:00.078Z,9.48
2017-12-16T09:45:28.528Z,9.60
2017-12-16T09:47:56.707Z,12.25
2017-12-16T09:50:24.734Z,10.35
2017-12-16T09:52:52.768Z,9.65
2017-12-16T09:55:20.866Z,10.05
2017-12-16T09:57:48.920Z,10.45
2017-12-16T10:00:16.982Z,10.70
2017-12-16T10:02:45.792Z,9.88
2017-12-16T10:05:14.621Z,10.75
2017-12-16T10:07:42.746Z,10.10
2017-12-16T10:10:10.841Z,8.50
2017-12-16T10:12:38.897Z,9.30
2017-12-16T10:15:07.712Z,10.13
2017-12-16T10:17:35.768Z,7.80
2017-12-16T10:20:03.864Z,9.52
2017-12-16T10:22:31.884Z,7.40
2017-12-16T10:25:00.713Z,6.90
2017-12-16T10:27:28.757Z,6.22
2017-12-16T10:29:56.846Z,6.22
2017-12-16T10:32:24.864Z,6.25
2017-12-16T10:34:52.905Z,7.32
2017-12-16T10:37:20.965Z,7.72
2017-12-16T10:39:49.013Z,7.90
2017-12-16T10:42:17.081Z,7.10
2017-12-16T10:44:45.884Z,6.40
2017-12-16T10:47:14.707Z,6.57
2017-12-16T10:49:42.787Z,7.35
2017-12-16T10:52:10.841Z,6.90
2017-12-16T10:54:38.898Z,5.72
2017-12-16T10:57:06.945Z,8.35
2017-12-16T10:59:34.981Z,6.78
2017-12-16T11:02:03.053Z,6.62
2017-12-16T11:04:31.100Z,6.82
2017-12-16T11:06:59.178Z,7.00
2017-12-16T11:09:27.206Z,6.55
2017-12-16T11:11:55.236Z,7.80
2017-12-16T11:14:23.305Z,7.93
2017-12-16T11:16:52.104Z,8.43
2017-12-16T11:19:20.933Z,7.53
2017-12-16T11:21:48.997Z,7.43
2017-12-16T11:24:17.097Z,7.03
2017-12-16T11:26:45.145Z,7.97
2017-12-16T11:29:13.185Z,7.00
2017-12-16T11:31:41.241Z,6.28
2017-12-16T11:34:09.303Z,5.90
2017-12-16T11:36:38.129Z,6.62
2017-12-16T11:39:06.228Z,6.00
2017-12-16T11:41:34.296Z,7.00
2017-12-16T11:44:02.332Z,6.47
2017-12-16T11:46:30.389Z,6.82
2017-12-16T11:48:58.446Z,7.57
2017-12-16T11:51:27.297Z,6.78
2017-12-16T11:53:55.337Z,7.07
2017-12-16T11:56:23.369Z,8.07
2017-12-16T11:58:51.434Z,7.22
2017-12-16T12:01:19.473Z,7.10
2017-12-16T12:03:48.300Z,8.13
2017-12-16T12:06:16.332Z,7.70
2017-12-16T12:08:44.408Z,6.95
2017-12-16T12:11:12.488Z,7.55
2017-12-16T12:13:40.524Z,7.10
2017-12-16T12:16:08.590Z,7.10
2017-12-16T12:18:38.413Z,6.97
2017-12-16T12:21:07.236Z,6.37
2017-12-16T12:23:36.043Z,6.57
2017-12-16T12:26:04.096Z,7.40
2017-12-16T12:28:32.128Z,5.85
2017-12-16T12:31:00.180Z,5.30
2017-12-16T12:33:28.226Z,4.93
2017-12-16T12:35:56.264Z,6.20
2017-12-16T12:38:24.300Z,4.82
2017-12-16T12:40:52.361Z,5.37
2017-12-16T12:43:20.976Z,5.60
2017-12-16T12:45:49.036Z,4.40
2017-12-16T12:48:17.125Z,4.55
2017-12-16T12:50:45.906Z,6.30
2017-12-16T12:53:13.932Z,4.90
2017-12-16T12:55:42.110Z,5.32
2017-12-16T12:58:10.233Z,5.75
2017-12-16T13:00:38.340Z,6.12
2017-12-16T13:03:06.361Z,5.87
2017-12-16T13:05:34.401Z,5.25
2017-12-16T13:08:02.461Z,3.00
2017-12-16T13:10:31.256Z,3.42
2017-12-16T13:12:59.311Z,4.62
2017-12-16T13:15:27.333Z,3.95
2017-12-16T13:17:56.153Z,4.40
2017-12-16T13:20:24.193Z,4.95
2017-12-16T13:22:52.258Z,4.65
2017-12-16T13:25:21.101Z,3.70
2017-12-16T13:27:49.487Z,5.22
2017-12-16T13:30:17.705Z,3.83
2017-12-16T13:32:45.742Z,4.72
2017-12-16T13:35:13.814Z,4.15
2017-12-16T13:37:41.849Z,4.50
2017-12-16T13:40:09.917Z,5.20
2017-12-16T13:42:38.727Z,4.55
2017-12-16T13:45:07.566Z,4.57
2017-12-16T13:47:35.620Z,5.62
2017-12-16T13:50:04.433Z,5.93
2017-12-16T13:52:32.486Z,5.05
2017-12-16T13:55:01.287Z,5.12
2017-12-16T13:57:29.337Z,4.45
2017-12-16T13:59:57.370Z,5.03
2017-12-16T14:02:26.230Z,4.62
2017-12-16T14:04:54.276Z,4.25
2017-12-16T14:07:22.302Z,4.82
2017-12-16T14:09:50.366Z,4.68
2017-12-16T14:12:18.397Z,5.55
2017-12-16T14:14:46.452Z,6.00
2017-12-16T14:17:14.513Z,5.90
2017-12-16T14:19:42.685Z,6.03
2017-12-16T14:22:10.712Z,5.97
2017-12-16T14:24:38.751Z,6.07
2017-12-16T14:27:06.820Z,5.55
2017-12-16T14:29:34.853Z,6.55
2017-12-16T14:32:02.928Z,5.55
2017-12-16T14:34:31.044Z,6.68
2017-12-16T14:36:59.093Z,7.20
2017-12-16T14:39:27.181Z,5.72
2017-12-16T14:41:55.249Z,7.57
2017-12-16T14:44:23.287Z,6.45
2017-12-16T14:46:51.342Z,5.55
2017-12-16T14:49:19.384Z,7.05
2017-12-16T14:51:47.437Z,6.32
2017-12-16T14:54:15.464Z,5.32
2017-12-16T14:56:43.544Z,6.07
2017-12-16T14:59:11.572Z,5.85
2017-12-16T15:01:39.634Z,4.93
2017-12-16T15:04:07.659Z,4.57
2017-12-16T15:06:36.493Z,5.00
2017-12-16T15:09:04.560Z,7.30
2017-12-16T15:11:33.517Z,5.62
2017-12-16T15:14:01.576Z,4.62
2017-12-16T15:16:29.612Z,4.68
2017-12-16T15:18:57.679Z,5.72
2017-12-16T15:21:25.716Z,7.18
2017-12-16T15:23:53.791Z,5.80
2017-12-16T15:26:21.869Z,6.10
2017-12-16T15:28:50.689Z,5.22
2017-12-16T15:31:18.721Z,5.57
2017-12-16T15:33:46.817Z,6.30
2017-12-16T15:36:14.897Z,6.70
2017-12-16T15:38:43.101Z,5.70
2017-12-16T15:41:11.983Z,5.97
2017-12-16T15:43:40.817Z,6.45
2017-12-16T15:46:08.911Z,7.28
2017-12-16T15:48:38.710Z,7.45
2017-12-16T15:51:06.856Z,7.12
2017-12-16T15:53:34.898Z,8.20
2017-12-16T15:56:02.967Z,10.52
2017-12-16T15:58:31.813Z,6.75
2017-12-16T16:00:59.893Z,9.05
2017-12-16T16:03:27.932Z,7.60
2017-12-16T16:05:56.793Z,9.20
2017-12-16T16:08:24.862Z,7.97
2017-12-16T16:10:52.983Z,6.53
2017-12-16T16:13:21.167Z,7.00
2017-12-16T16:15:49.278Z,8.40
2017-12-16T16:18:17.369Z,8.13
2017-12-16T16:20:46.217Z,7.72
2017-12-16T16:23:14.266Z,8.88
2017-12-16T16:25:42.333Z,8.02
2017-12-16T16:28:11.243Z,8.57
2017-12-16T16:30:40.105Z,7.15
2017-12-16T16:33:08.140Z,9.15
2017-12-16T16:35:36.384Z,9.25
2017-12-16T16:38:04.461Z,10.93
2017-12-16T16:40:32.834Z,9.45
2017-12-16T16:43:01.006Z,8.02
2017-12-16T16:45:29.090Z,14.05
2017-12-16T16:47:57.190Z,9.98
2017-12-16T16:50:25.300Z,7.97
2017-12-16T16:52:53.328Z,8.50
2017-12-16T16:55:21.368Z,9.15
2017-12-16T16:57:49.469Z,11.00
2017-12-16T17:00:17.500Z,9.82
2017-12-16T17:02:45.701Z,7.72
2017-12-16T17:05:13.761Z,8.38
2017-12-16T17:07:41.813Z,10.20
2017-12-16T17:10:09.881Z,9.88
2017-12-16T17:12:37.905Z,10.70
2017-12-16T17:15:06.106Z,10.20
2017-12-16T17:17:34.144Z,9.93
2017-12-16T17:20:04.466Z,9.50
2017-12-16T17:22:32.754Z,9.70
2017-12-16T17:25:00.784Z,9.00
2017-12-16T17:27:28.858Z,10.38
2017-12-16T17:29:57.678Z,8.15
2017-12-16T17:32:26.516Z,8.32
2017-12-16T17:34:54.539Z,9.20
2017-12-16T17:37:22.588Z,8.88
2017-12-16T17:39:50.669Z,9.13
2017-12-16T17:42:18.713Z,8.10
2017-12-16T17:44:46.753Z,9.65
2017-12-16T17:47:14.849Z,9.38
2017-12-16T17:49:42.945Z,9.70
2017-12-16T17:52:11.004Z,9.82
2017-12-16T17:54:39.061Z,9.02
2017-12-16T17:57:07.233Z,10.32
2017-12-16T17:59:35.281Z,9.90
2017-12-16T18:02:03.326Z,9.70
2017-12-16T18:04:31.384Z,9.40
2017-12-16T18:06:59.421Z,8.32
2017-12-16T18:09:27.480Z,10.80
2017-12-16T18:11:55.524Z,8.10
2017-12-16T18:14:23.604Z,8.82
2017-12-16T18:16:52.397Z,9.75
2017-12-16T18:19:20.449Z,10.70
2017-12-16T18:21:48.496Z,9.32
2017-12-16T18:24:16.560Z,9.30
2017-12-16T18:26:44.616Z,8.40
2017-12-16T18:29:12.679Z,9.57
2017-12-16T18:31:40.953Z,9.23
2017-12-16T18:34:08.982Z,9.55
2017-12-16T18:36:37.781Z,9.63
2017-12-16T18:39:06.625Z,9.35
2017-12-16T18:41:34.665Z,8.98
2017-12-16T18:44:02.720Z,7.55
2017-12-16T18:46:30.845Z,9.70
2017-12-16T18:48:58.903Z,9.32
2017-12-16T18:51:26.930Z,9.52
2017-12-16T18:53:55.026Z,8.45
2017-12-16T18:56:23.064Z,8.50
2017-12-16T18:58:51.106Z,7.93
2017-12-16T19:01:19.175Z,8.23
2017-12-16T19:03:47.209Z,8.63
2017-12-16T19:06:15.350Z,8.50
2017-12-16T19:08:43.389Z,10.60
2017-12-16T19:11:11.428Z,11.27
2017-12-16T19:13:39.492Z,8.50
2017-12-16T19:16:07.524Z,9.32
2017-12-16T19:18:37.608Z,8.93
2017-12-16T19:21:05.637Z,10.38
2017-12-16T19:23:33.664Z,8.25
2017-12-16T19:26:01.717Z,8.35
2017-12-16T19:28:29.807Z,7.62
2017-12-16T19:30:57.857Z,9.13
2017-12-16T19:33:25.897Z,8.85
2017-12-16T19:35:54.719Z,9.13
2017-12-16T19:38:22.741Z,9.35
2017-12-16T19:40:50.833Z,7.65
2017-12-16T19:43:18.918Z,7.43
2017-12-16T19:45:46.949Z,8.30
2017-12-16T19:48:15.020Z,8.23
2017-12-16T19:50:43.073Z,7.90
2017-12-16T19:53:11.142Z,9.43
2017-12-16T19:55:39.165Z,8.27
2017-12-16T19:58:07.233Z,7.00
2017-12-16T20:00:36.046Z,7.25
2017-12-16T20:03:04.961Z,7.50
2017-12-16T20:05:33.007Z,10.85
2017-12-16T20:08:01.050Z,7.18
2017-12-16T20:10:29.101Z,7.32
2017-12-16T20:12:57.909Z,7.37
2017-12-16T20:15:25.958Z,6.55
2017-12-16T20:17:54.000Z,7.15
2017-12-16T20:20:22.070Z,5.70
2017-12-16T20:22:50.090Z,6.07
2017-12-16T20:25:18.177Z,7.15
2017-12-16T20:27:46.205Z,7.65
2017-12-16T20:30:15.119Z,6.50
2017-12-16T20:32:43.939Z,5.95
2017-12-16T20:35:11.980Z,6.93
2017-12-16T20:37:40.781Z,5.75
2017-12-16T20:40:09.596Z,6.47
2017-12-16T20:42:37.669Z,7.30
2017-12-16T20:45:06.269Z,5.25
2017-12-16T20:47:34.293Z,6.22
2017-12-16T20:50:02.329Z,6.97
2017-12-16T20:52:30.405Z,6.70
2017-12-16T20:54:58.492Z,8.20
2017-12-16T20:57:26.542Z,7.32
2017-12-16T20:59:54.577Z,7.22
2017-12-16T21:02:23.393Z,6.95
2017-12-16T21:04:51.425Z,7.00
2017-12-16T21:07:19.609Z,6.35
2017-12-16T21:09:49.352Z,6.03
2017-12-16T21:12:18.305Z,8.00
2017-12-16T21:14:46.388Z,5.72
2017-12-16T21:17:14.416Z,6.95
2017-12-16T21:19:42.452Z,6.20
2017-12-16T21:22:10.534Z,7.82
2017-12-16T21:24:39.490Z,6.55
2017-12-16T21:27:07.531Z,6.40
2017-12-16T21:29:35.592Z,5.97
2017-12-16T21:32:04.393Z,6.00
2017-12-16T21:34:32.578Z,7.28
2017-12-16T21:37:01.366Z,5.28
2017-12-16T21:39:30.155Z,5.97
2017-12-16T21:41:58.250Z,5.53
2017-12-16T21:44:27.054Z,7.18
2017-12-16T21:46:55.934Z,5.37
2017-12-16T21:49:23.958Z,6.75
2017-12-16T21:51:52.046Z,5.12
2017-12-16T21:54:20.095Z,5.22
2017-12-16T21:56:48.125Z,4.93
2017-12-16T21:59:16.184Z,4.82
2017-12-16T22:01:44.985Z,6.72
2017-12-16T22:04:13.809Z,6.00
2017-12-16T22:06:41.850Z,4.60
2017-12-16T22:09:09.926Z,7.30
2017-12-16T22:11:38.045Z,5.65
2017-12-16T22:14:06.892Z,6.03
2017-12-16T22:16:34.921Z,5.07
2017-12-16T22:19:03.737Z,5.70
2017-12-16T22:21:31.794Z,4.55
2017-12-16T22:23:59.873Z,4.60
2017-12-16T22:26:27.891Z,4.80
2017-12-16T22:28:56.324Z,4.30
2017-12-16T22:31:24.381Z,5.00
2017-12-16T22:33:52.545Z,4.35
2017-12-16T22:36:21.330Z,3.40
2017-12-16T22:38:49.361Z,5.28
2017-12-16T22:41:17.413Z,4.78
2017-12-16T22:43:46.290Z,5.25
2017-12-16T22:46:14.356Z,3.92
2017-12-16T22:48:43.160Z,4.55
2017-12-16T22:51:11.198Z,4.93
2017-12-16T22:53:40.254Z,5.25
2017-12-16T22:56:08.350Z,4.35
2017-12-16T22:58:36.392Z,4.20
2017-12-16T23:01:06.668Z,4.15
2017-12-16T23:03:35.652Z,4.97
2017-12-16T23:06:03.684Z,4.37
2017-12-16T23:08:32.508Z,4.53
2017-12-16T23:11:00.594Z,4.70
2017-12-16T23:13:29.457Z,5.10
2017-12-16T23:15:57.572Z,5.45
2017-12-16T23:18:25.612Z,4.07
2017-12-16T23:20:53.647Z,4.43
2017-12-16T23:23:21.757Z,5.15
2017-12-16T23:25:49.785Z,4.30
2017-12-16T23:28:18.605Z,4.40
2017-12-16T23:30:46.717Z,4.65
2017-12-16T23:33:14.753Z,4.15
2017-12-16T23:35:43.609Z,4.60
2017-12-16T23:38:11.685Z,4.57
2017-12-16T23:40:39.853Z,3.90
2017-12-16T23:43:07.960Z,4.18
2017-12-16T23:45:36.005Z,4.15
2017-12-16T23:48:04.887Z,4.50
2017-12-16T23:50:32.942Z,3.83
2017-12-16T23:53:00.964Z,4.47
2017-12-16T23:55:29.952Z,4.50
2017-12-16T23:57:57.985Z,4.45
